Time;durP1;ratioP1;P1;durP2;ratioP2;P2;SDS_P1;SDS_P2;PMS_P1;PMS_P2;Temp;Humidity;BMP_temperature;BMP_pressure;BME280_temperature;BME280_humidity;BME280_pressure;Samples;Min_cycle;Max_cycle;Signal;HPM_P1;HPM_P2
2022/01/11 00:01:01;;;;;;;4.60;3.42;;;18.60;42.80;;;;;;5073255;28;20033;-69
2022/01/11 00:03:26;;;;;;;4.95;3.35;;;18.60;42.80;;;;;;5072791;28;20037;-69
2022/01/11 00:05:58;;;;;;;5.82;3.30;;;18.60;42.80;;;;;;5069610;28;20029;-69
2022/01/11 00:08:32;;;;;;;5.28;3.50;;;18.50;42.80;;;;;;5073140;28;20028;-69
2022/01/11 00:11:04;;;;;;;4.90;3.35;;;18.50;42.80;;;;;;5068789;28;20029;-69
2022/01/11 00:13:34;;;;;;;;;;;18.50;42.90;;;;;;5069943;28;20482;-69
2022/01/11 00:16:01;;;;;;;4.88;3.20;;;18.50;42.90;;;;;;5059506;28;19905;-69
2022/01/11 00:18:27;;;;;;;4.57;3.15;;;18.40;43.00;;;;;;5072333;28;20024;-69
2022/01/11 00:20:53;;;;;;;4.78;3.35;;;18.40;43.00;;;;;;5072111;28;20094;-68
2022/01/11 00:25:46;;;;;;;5.13;3.75;;;18.40;43.00;;;;;;5072229;28;20041;-68
2022/01/11 00:28:15;;;;;;;5.88;3.78;;;18.40;43.00;;;;;;5070619;28;20032;-69
2022/01/11 00:30:43;;;;;;;4.50;3.30;;;18.40;43.00;;;;;;5070957;28;20408;-69
2022/01/11 00:33:14;;;;;;;4.93;3.58;;;18.40;43.00;;;;;;5071185;28;20365;-69
2022/01/11 00:35:45;;;;;;;4.93;3.35;;;18.30;42.90;;;;;;5070175;28;20069;-69
2022/01/11 00:38:15;;;;;;;4.95;3.40;;;18.30;43.00;;;;;;5069905;28;20119;-69
2022/01/11 00:40:52;;;;;;;4.88;3.47;;;18.40;43.00;;;;;;5073087;28;20066;-68
2022/01/11 00:43:20;;;;;;;4.85;3.53;;;18.40;43.00;;;;;;5071823;28;20116;-69
2022/01/11 00:45:47;;;;;;;5.25;3.63;;;18.30;43.10;;;;;;5071449;28;20025;-70
2022/01/11 00:48:13;;;;;;;4.25;3.20;;;18.30;43.10;;;;;;5072707;28;20041;-70
2022/01/11 00:50:39;;;;;;;4.53;3.10;;;18.30;43.00;;;;;;5070928;28;20021;-76
2022/01/11 00:53:06;;;;;;;4.82;3.65;;;18.30;43.00;;;;;;5071890;28;20074;-77
2022/01/11 00:55:32;;;;;;;4.38;3.05;;;18.30;43.00;;;;;;5072895;28;20047;-75
2022/01/11 00:57:58;;;;;;;4.82;3.10;;;18.30;42.90;;;;;;5077123;28;20028;-75
2022/01/11 01:00:24;;;;;;;4.65;3.40;;;18.20;42.90;;;;;;5080238;28;20127;-76
2022/01/11 01:02:49;;;;;;;4.15;3.13;;;18.20;42.90;;;;;;5072805;28;20111;-76
2022/01/11 01:05:17;;;;;;;4.78;3.30;;;18.20;42.80;;;;;;5070709;28;20063;-76
2022/01/11 01:07:44;;;;;;;4.75;3.40;;;18.20;42.80;;;;;;5071632;28;20024;-76
2022/01/11 01:10:35;;;;;;;4.75;3.45;;;18.20;42.70;;;;;;5071959;28;20036;-76
2022/01/11 01:12:59;;;;;;;4.80;3.40;;;18.20;42.70;;;;;;5071378;28;20124;-76
2022/01/11 01:15:26;;;;;;;5.20;3.70;;;18.20;42.70;;;;;;5070122;28;20090;-76
2022/01/11 01:17:52;;;;;;;4.50;3.20;;;18.10;42.70;;;;;;5071470;28;20025;-70
2022/01/11 01:20:18;;;;;;;5.97;3.55;;;18.10;42.70;;;;;;5071387;28;20036;-70
2022/01/11 01:22:44;;;;;;;4.22;3.30;;;18.10;42.70;;;;;;5071679;28;20028;-70
2022/01/11 01:25:10;;;;;;;4.93;3.08;;;18.10;42.60;;;;;;5073488;28;20056;-70
2022/01/11 01:27:36;;;;;;;5.65;3.38;;;18.10;42.60;;;;;;5071686;28;20036;-70
2022/01/11 01:30:04;;;;;;;3.90;3.20;;;18.10;42.60;;;;;;5072165;28;20028;-70
2022/01/11 01:32:30;;;;;;;4.65;3.38;;;18.10;42.50;;;;;;5072622;28;20028;-70
2022/01/11 01:35:00;;;;;;;5.50;3.60;;;18.10;42.50;;;;;;5071621;28;20033;-76
2022/01/11 01:37:26;;;;;;;4.40;3.10;;;18.10;42.50;;;;;;5070739;28;20115;-76
2022/01/11 01:39:52;;;;;;;4.13;3.00;;;18.00;42.50;;;;;;5071144;28;20112;-76
2022/01/11 01:42:27;;;;;;;4.85;3.58;;;18.00;42.50;;;;;;5072579;28;20479;-76
2022/01/11 01:44:52;;;;;;;5.07;3.13;;;18.00;42.40;;;;;;5070536;28;20106;-76
2022/01/11 01:47:18;;;;;;;4.20;3.08;;;18.00;42.50;;;;;;5072403;28;20036;-76
2022/01/11 01:49:44;;;;;;;4.47;3.50;;;18.00;42.50;;;;;;5072230;28;20044;-76
2022/01/11 01:52:10;;;;;;;5.07;3.70;;;18.00;42.50;;;;;;5072256;28;20032;-76
2022/01/11 01:54:36;;;;;;;4.50;3.38;;;17.90;42.40;;;;;;5072205;28;20029;-76
2022/01/11 01:57:04;;;;;;;4.28;3.22;;;17.90;42.40;;;;;;5071796;28;20461;-76
2022/01/11 01:59:30;;;;;;;5.22;3.63;;;17.90;42.40;;;;;;5076394;28;20032;-70
2022/01/11 02:01:57;;;;;;;3.67;2.88;;;17.90;42.60;;;;;;5071365;28;20032;-70
2022/01/11 02:04:23;;;;;;;4.68;3.45;;;17.90;42.40;;;;;;5073105;28;20379;-76
2022/01/11 02:06:48;;;;;;;4.63;3.58;;;17.90;42.40;;;;;;5070758;28;20119;-76
2022/01/11 02:09:15;;;;;;;5.10;3.45;;;17.80;42.30;;;;;;5070833;28;20484;-76
2022/01/11 02:11:41;;;;;;;4.47;3.20;;;17.80;42.30;;;;;;5066571;28;20033;-76
2022/01/11 02:14:08;;;;;;;4.03;3.00;;;17.80;42.30;;;;;;5064616;28;20049;-76
2022/01/11 02:16:34;;;;;;;3.95;3.00;;;17.80;42.30;;;;;;5065075;28;20457;-76
2022/01/11 02:18:59;;;;;;;4.03;3.08;;;17.80;42.30;;;;;;5075547;28;20031;-76
2022/01/11 02:21:25;;;;;;;4.10;3.15;;;17.80;42.20;;;;;;5075266;28;20024;-76
2022/01/11 02:23:51;;;;;;;5.25;3.33;;;17.80;42.20;;;;;;5074885;28;20024;-76
2022/01/11 02:26:17;;;;;;;4.47;3.30;;;17.80;42.30;;;;;;5076082;28;20020;-76
2022/01/11 02:28:43;;;;;;;4.53;3.20;;;17.80;42.20;;;;;;5073147;28;20089;-76
2022/01/11 02:31:12;;;;;;;3.85;2.83;;;17.70;42.20;;;;;;5072545;28;20024;-76
2022/01/11 02:33:50;;;;;;;3.88;3.00;;;17.70;42.30;;;;;;5057874;28;20360;-76
2022/01/11 02:36:19;;;;;;;4.45;3.35;;;17.70;42.20;;;;;;5076123;28;20031;-76
2022/01/11 02:38:50;;;;;;;4.30;3.28;;;17.70;42.20;;;;;;5074325;28;20499;-76
2022/01/11 02:41:17;;;;;;;4.63;3.40;;;17.70;42.20;;;;;;5075456;28;20020;-76
2022/01/11 02:43:44;;;;;;;4.13;3.20;;;17.70;42.30;;;;;;5075688;28;20372;-70
2022/01/11 02:46:10;;;;;;;4.68;3.40;;;17.70;42.20;;;;;;5073558;28;20029;-70
2022/01/11 02:48:37;;;;;;;4.18;2.97;;;17.70;42.20;;;;;;5073846;28;20487;-70
2022/01/11 02:51:03;;;;;;;4.47;2.97;;;17.60;42.10;;;;;;5075199;28;20029;-70
2022/01/11 02:53:29;;;;;;;4.30;3.15;;;17.60;42.10;;;;;;5074341;28;20539;-71
2022/01/11 02:55:55;;;;;;;4.47;3.08;;;17.60;42.10;;;;;;5074256;28;20102;-70
2022/01/11 02:58:20;;;;;;;4.60;3.35;;;17.60;42.10;;;;;;5083039;28;20026;-72
2022/01/11 03:00:46;;;;;;;5.15;3.50;;;17.60;42.10;;;;;;5080478;28;20055;-76
2022/01/11 03:03:14;;;;;;;4.05;3.28;;;17.60;42.10;;;;;;5072821;28;20365;-76
2022/01/11 03:05:47;;;;;;;4.30;3.15;;;17.60;42.10;;;;;;5073908;28;20017;-76
2022/01/11 03:08:14;;;;;;;4.85;2.83;;;17.60;42.10;;;;;;5074678;28;20028;-71
2022/01/11 03:10:40;;;;;;;4.30;3.00;;;17.50;42.10;;;;;;5071799;28;20124;-70
2022/01/11 03:13:07;;;;;;;4.38;3.38;;;17.50;42.10;;;;;;5068023;28;20547;-70
2022/01/11 03:15:34;;;;;;;5.18;3.50;;;17.50;42.00;;;;;;5073888;28;20033;-70
2022/01/11 03:18:00;;;;;;;4.45;3.05;;;17.50;42.00;;;;;;5074987;28;20026;-76
2022/01/11 03:20:26;;;;;;;4.53;3.40;;;17.50;42.00;;;;;;5074889;28;20029;-76
2022/01/11 03:22:52;;;;;;;4.00;2.95;;;17.50;42.00;;;;;;5073986;28;20060;-71
2022/01/11 03:25:18;;;;;;;3.35;2.80;;;17.50;42.00;;;;;;5075925;28;20031;-71
2022/01/11 03:27:44;;;;;;;4.22;3.13;;;17.40;42.00;;;;;;5073016;28;20532;-71
2022/01/11 03:30:11;;;;;;;3.92;2.97;;;17.40;42.00;;;;;;5074299;28;20107;-71
2022/01/11 03:32:37;;;;;;;4.45;3.13;;;17.40;42.00;;;;;;5074374;28;20047;-71
2022/01/11 03:35:05;;;;;;;3.58;2.88;;;17.40;42.00;;;;;;5074642;28;20029;-71
2022/01/11 03:37:31;;;;;;;4.20;2.80;;;17.40;42.00;;;;;;5073623;28;20147;-70
2022/01/11 03:39:56;;;;;;;4.07;3.00;;;17.40;42.00;;;;;;5074893;28;20507;-77
2022/01/11 03:42:22;;;;;;;4.55;3.28;;;17.40;42.00;;;;;;5074581;28;20039;-77
2022/01/11 03:44:49;;;;;;;4.10;3.20;;;17.40;42.00;;;;;;5072728;28;20039;-76
2022/01/11 03:47:15;;;;;;;4.38;3.40;;;17.30;42.00;;;;;;5071281;28;20037;-76
2022/01/11 03:49:40;;;;;;;3.83;3.05;;;17.30;42.00;;;;;;5074089;28;20024;-76
2022/01/11 03:52:06;;;;;;;4.35;3.30;;;17.30;42.00;;;;;;5073760;28;20119;-76
2022/01/11 03:54:49;;;;;;;3.92;2.85;;;17.30;42.00;;;;;;5074068;28;20021;-71
2022/01/11 03:57:15;;;;;;;4.60;3.25;;;17.30;42.10;;;;;;5071357;28;20388;-70
2022/01/11 03:59:41;;;;;;;4.80;3.00;;;17.30;42.10;;;;;;5074774;28;20024;-71
2022/01/11 04:02:06;;;;;;;4.70;2.90;;;17.30;42.00;;;;;;5073951;28;20039;-71
2022/01/11 04:04:32;;;;;;;3.80;2.65;;;17.20;42.90;;;;;;5070730;28;20058;-71
2022/01/11 04:07:00;;;;;;;4.03;3.08;;;17.20;42.00;;;;;;5071312;28;20410;-77
2022/01/11 04:09:25;;;;;;;4.00;3.10;;;17.20;42.00;;;;;;5073864;28;20029;-76
2022/01/11 04:11:51;;;;;;;4.07;3.00;;;17.20;42.00;;;;;;5070967;28;20024;-76
2022/01/11 04:14:17;;;;;;;3.28;2.60;;;17.20;41.90;;;;;;5074636;28;20044;-76
2022/01/11 04:16:43;;;;;;;4.53;3.22;;;17.20;41.90;;;;;;5072423;28;20024;-76
2022/01/11 04:19:08;;;;;;;4.55;2.67;;;17.10;41.90;;;;;;5074003;28;20025;-76
2022/01/11 04:21:34;;;;;;;3.80;2.90;;;17.20;42.00;;;;;;5072251;28;20032;-76
2022/01/11 04:24:00;;;;;;;4.55;3.00;;;17.20;41.90;;;;;;5072977;28;20036;-77
2022/01/11 04:26:25;;;;;;;5.10;3.30;;;17.10;41.90;;;;;;5072848;28;20024;-76
2022/01/11 04:28:51;;;;;;;4.10;3.10;;;17.10;41.90;;;;;;5072134;28;20162;-71
2022/01/11 04:31:17;;;;;;;3.78;3.00;;;17.10;42.00;;;;;;5073729;28;20025;-70
2022/01/11 04:33:43;;;;;;;3.88;2.95;;;17.10;42.00;;;;;;5072438;28;20472;-77
2022/01/11 04:36:10;;;;;;;3.40;2.53;;;17.10;42.00;;;;;;5073580;28;20017;-76
2022/01/11 04:38:35;;;;;;;4.43;2.95;;;17.10;42.00;;;;;;5073038;28;20025;-77
2022/01/11 04:41:01;;;;;;;5.50;3.30;;;17.10;42.00;;;;;;5072853;28;20380;-70
2022/01/11 04:43:27;;;;;;;4.75;3.45;;;17.10;42.00;;;;;;5073051;28;20454;-70
2022/01/11 04:45:53;;;;;;;4.25;3.03;;;17.00;42.00;;;;;;5073602;28;20104;-76
2022/01/11 04:48:19;;;;;;;3.83;2.88;;;17.00;41.90;;;;;;5072992;28;20488;-76
2022/01/11 04:50:45;;;;;;;4.05;2.95;;;17.00;41.90;;;;;;5072790;28;20028;-76
2022/01/11 04:53:11;;;;;;;4.15;2.83;;;17.00;41.90;;;;;;5072305;28;20368;-70
2022/01/11 04:55:37;;;;;;;4.60;3.10;;;17.00;41.90;;;;;;5073198;28;20016;-70
2022/01/11 04:58:03;;;;;;;4.15;3.00;;;17.00;41.90;;;;;;5076878;28;20043;-70
2022/01/11 05:00:28;;;;;;;4.68;3.38;;;17.00;41.90;;;;;;5080754;28;20026;-70
2022/01/11 05:02:58;;;;;;;4.43;2.85;;;17.00;41.90;;;;;;5072019;28;20086;-70
2022/01/11 05:05:29;;;;;;;4.68;3.10;;;17.00;41.90;;;;;;5072799;28;20025;-76
2022/01/11 05:07:56;;;;;;;5.03;3.58;;;17.00;41.90;;;;;;5085313;28;20115;-76
2022/01/11 05:10:23;;;;;;;4.50;3.38;;;17.00;41.90;;;;;;5073841;28;20448;-70
2022/01/11 05:12:49;;;;;;;4.70;3.25;;;17.00;41.90;;;;;;5071775;28;20044;-70
2022/01/11 05:15:16;;;;;;;4.75;3.20;;;17.00;42.00;;;;;;5072754;28;20032;-70
2022/01/11 05:17:42;;;;;;;4.13;3.10;;;16.90;41.90;;;;;;5072642;28;20029;-76
2022/01/11 05:20:09;;;;;;;5.43;3.10;;;16.90;41.90;;;;;;5071435;28;20029;-76
2022/01/11 05:22:35;;;;;;;4.15;2.88;;;16.90;41.90;;;;;;5054242;28;20044;-76
2022/01/11 05:25:00;;;;;;;4.35;2.90;;;16.90;41.90;;;;;;5072424;28;20028;-70
2022/01/11 05:27:30;;;;;;;5.05;3.40;;;16.90;41.90;;;;;;5071378;28;20038;-76
2022/01/11 05:29:56;;;;;;;4.80;3.63;;;16.90;41.90;;;;;;5070241;28;20434;-76
2022/01/11 05:32:22;;;;;;;4.35;3.00;;;16.90;41.90;;;;;;5072064;28;20032;-76
2022/01/11 05:34:48;;;;;;;4.35;3.15;;;16.80;41.80;;;;;;5073480;28;20360;-76
2022/01/11 05:37:13;;;;;;;4.32;3.17;;;16.90;41.90;;;;;;5073514;28;20035;-76
2022/01/11 05:39:39;;;;;;;4.30;2.95;;;16.80;41.90;;;;;;5072415;28;20038;-76
2022/01/11 05:42:06;;;;;;;3.63;2.90;;;16.80;41.90;;;;;;5066752;28;20099;-76
2022/01/11 05:44:36;;;;;;;4.28;3.22;;;16.80;41.90;;;;;;5071360;28;20078;-76
2022/01/11 05:47:03;;;;;;;4.80;3.40;;;16.80;41.90;;;;;;5072455;28;20480;-75
2022/01/11 05:49:29;;;;;;;4.90;3.47;;;16.80;42.80;;;;;;5072233;28;20029;-76
2022/01/11 05:51:55;;;;;;;4.80;3.42;;;16.80;41.90;;;;;;5074289;28;20070;-76
2022/01/11 05:54:21;;;;;;;4.10;3.05;;;16.80;41.90;;;;;;5072237;28;20103;-76
2022/01/11 05:56:47;;;;;;;4.88;3.40;;;16.80;41.90;;;;;;5074377;28;20116;-76
2022/01/11 05:59:12;;;;;;;4.25;3.20;;;16.80;41.90;;;;;;5087227;28;20043;-75
2022/01/11 06:01:38;;;;;;;4.55;3.25;;;16.70;41.90;;;;;;5076542;28;20024;-77
2022/01/11 06:04:04;;;;;;;3.78;3.10;;;16.70;41.90;;;;;;5074881;28;20039;-76
2022/01/11 06:06:30;;;;;;;4.63;2.95;;;16.70;41.90;;;;;;5076478;28;20520;-76
2022/01/11 06:08:55;;;;;;;4.50;3.30;;;16.70;41.90;;;;;;5076916;28;20032;-76
2022/01/11 06:11:21;;;;;;;4.70;3.33;;;16.70;41.90;;;;;;5074038;28;20059;-76
2022/01/11 06:13:50;;;;;;;5.30;3.58;;;16.70;42.00;;;;;;5076060;28;20048;-76
2022/01/11 06:16:17;;;;;;;4.57;3.28;;;16.70;42.00;;;;;;5074136;28;20119;-76
2022/01/11 06:18:43;;;;;;;4.70;2.92;;;16.70;42.00;;;;;;5077173;28;20104;-70
2022/01/11 06:21:09;;;;;;;4.65;3.33;;;16.60;41.90;;;;;;5075357;28;20231;-70
2022/01/11 06:23:35;;;;;;;5.07;3.25;;;16.60;41.90;;;;;;5076897;28;20127;-70
2022/01/11 06:26:00;;;;;;;5.47;3.50;;;16.60;41.90;;;;;;5074177;28;20103;-70
2022/01/11 06:28:26;;;;;;;4.30;3.10;;;16.60;41.90;;;;;;5076482;28;20488;-70
2022/01/11 06:30:52;;;;;;;4.68;3.45;;;16.60;41.90;;;;;;5074781;28;20044;-70
2022/01/11 06:33:18;;;;;;;4.38;3.10;;;16.60;41.90;;;;;;5074883;28;20024;-70
2022/01/11 06:35:43;;;;;;;4.43;3.42;;;16.60;41.90;;;;;;5075918;28;20060;-70
2022/01/11 06:38:09;;;;;;;4.28;3.13;;;16.60;41.90;;;;;;5075741;28;20039;-70
2022/01/11 06:40:34;;;;;;;4.65;3.33;;;16.60;41.90;;;;;;5074552;28;20479;-70
2022/01/11 06:43:00;;;;;;;5.68;3.70;;;16.50;42.90;;;;;;5073819;28;20476;-76
2022/01/11 06:45:27;;;;;;;4.85;3.50;;;16.60;42.00;;;;;;5074174;28;20055;-76
2022/01/11 06:47:53;;;;;;;4.88;3.30;;;16.50;41.90;;;;;;5075346;28;20037;-76
2022/01/11 06:50:19;;;;;;;4.38;3.25;;;16.50;42.00;;;;;;5075537;28;20025;-70
2022/01/11 06:52:45;;;;;;;5.28;3.42;;;16.50;41.90;;;;;;5057894;28;20407;-70
2022/01/11 06:55:12;;;;;;;4.78;3.30;;;16.50;42.00;;;;;;5074292;28;20108;-70
2022/01/11 06:57:39;;;;;;;4.60;3.05;;;16.50;41.90;;;;;;5073232;28;20492;-70
2022/01/11 07:00:08;;;;;;;5.60;3.80;;;16.50;41.90;;;;;;5079580;28;20021;-76
2022/01/11 07:02:33;;;;;;;5.45;3.63;;;16.50;41.90;;;;;;5074744;28;20028;-76
2022/01/11 07:04:59;;;;;;;5.57;3.53;;;16.50;42.00;;;;;;5065621;28;20036;-76
2022/01/11 07:07:24;;;;;;;5.00;3.60;;;16.50;42.00;;;;;;5069575;28;20472;-76
2022/01/11 07:09:50;;;;;;;5.30;3.63;;;16.50;42.00;;;;;;5073915;28;20030;-70
2022/01/11 07:12:16;;;;;;;5.00;3.45;;;16.50;42.00;;;;;;5063932;28;20182;-70
2022/01/11 07:14:42;;;;;;;4.47;3.35;;;16.40;42.00;;;;;;5075171;28;20020;-70
2022/01/11 07:17:07;;;;;;;4.95;3.60;;;16.40;41.90;;;;;;5073816;28;20033;-70
2022/01/11 07:19:34;;;;;;;5.07;3.67;;;16.40;42.00;;;;;;5074748;28;20025;-70
2022/01/11 07:22:00;;;;;;;5.00;3.75;;;16.40;41.90;;;;;;5074946;28;20047;-70
2022/01/11 07:24:26;;;;;;;5.72;3.50;;;16.40;42.00;;;;;;5072874;28;20129;-70
2022/01/11 07:26:53;;;;;;;10.35;6.82;;;16.40;42.00;;;;;;5072746;28;20119;-66
2022/01/11 07:29:19;;;;;;;11.00;7.07;;;16.10;39.80;;;;;;5074617;28;20064;-66
2022/01/11 07:31:45;;;;;;;11.05;6.97;;;15.70;39.90;;;;;;5074543;28;20060;-66
2022/01/11 07:34:10;;;;;;;12.68;7.32;;;15.30;40.40;;;;;;5074613;28;20036;-67
2022/01/11 07:36:36;;;;;;;12.95;7.40;;;14.90;40.90;;;;;;5074419;28;20036;-66
2022/01/11 07:39:03;;;;;;;11.88;6.10;;;14.60;41.30;;;;;;5074651;28;20021;-76
2022/01/11 07:41:29;;;;;;;11.50;6.85;;;14.30;42.00;;;;;;5074550;28;20476;-78
2022/01/11 07:43:55;;;;;;;11.70;6.47;;;14.10;42.50;;;;;;5071443;28;20119;-67
2022/01/11 07:46:20;;;;;;;11.70;7.43;;;13.90;43.00;;;;;;5073301;28;20392;-67
2022/01/11 07:48:46;;;;;;;12.10;7.10;;;13.70;42.90;;;;;;5072656;28;20036;-67
2022/01/11 07:51:12;;;;;;;15.38;8.48;;;13.60;43.30;;;;;;5073451;28;20036;-66
2022/01/11 07:53:38;;;;;;;11.32;6.80;;;13.40;43.70;;;;;;5074002;28;20472;-67
2022/01/11 07:56:04;;;;;;;11.23;6.63;;;13.30;44.70;;;;;;5067980;28;20095;-71
2022/01/11 07:58:29;;;;;;;11.27;6.03;;;13.40;46.00;;;;;;5067825;28;20028;-71
2022/01/11 08:00:55;;;;;;;8.32;5.28;;;13.70;46.40;;;;;;5073644;28;20025;-72
2022/01/11 08:03:21;;;;;;;9.23;5.47;;;14.10;46.00;;;;;;5074526;28;20111;-69
2022/01/11 08:05:47;;;;;;;9.10;5.68;;;14.50;45.60;;;;;;5070144;28;20029;-68
2022/01/11 08:08:12;;;;;;;8.25;5.43;;;14.80;45.20;;;;;;5066200;28;20024;-68
2022/01/11 08:10:38;;;;;;;7.70;4.78;;;15.10;44.90;;;;;;5069952;28;20025;-71
2022/01/11 08:13:07;;;;;;;9.63;5.15;;;15.40;44.60;;;;;;5061106;28;20063;-71
2022/01/11 08:15:34;;;;;;;9.15;4.63;;;15.60;44.30;;;;;;5076151;28;20074;-71
2022/01/11 08:18:00;;;;;;;8.02;4.75;;;15.80;43.90;;;;;;5074816;28;20025;-71
2022/01/11 08:20:25;;;;;;;10.10;5.03;;;16.00;43.60;;;;;;5074261;28;20356;-71
2022/01/11 08:22:53;;;;;;;9.73;4.75;;;16.20;43.30;;;;;;5074897;28;20093;-70
2022/01/11 08:25:20;;;;;;;8.52;4.68;;;16.40;42.90;;;;;;5070029;28;20120;-73
2022/01/11 08:27:46;;;;;;;6.75;4.40;;;16.60;42.70;;;;;;5054537;28;20039;-69
2022/01/11 08:30:12;;;;;;;7.75;4.65;;;16.70;42.70;;;;;;5054255;28;20361;-69
2022/01/11 08:32:38;;;;;;;11.60;5.70;;;16.90;42.70;;;;;;5067226;28;20092;-69
2022/01/11 08:35:04;;;;;;;9.60;5.82;;;17.00;43.10;;;;;;5056772;28;20021;-70
2022/01/11 08:37:29;;;;;;;12.30;6.90;;;17.20;43.70;;;;;;5065694;28;20376;-69
2022/01/11 08:39:55;;;;;;;14.57;7.40;;;17.30;43.50;;;;;;5072876;28;20025;-69
2022/01/11 08:42:21;;;;;;;10.93;6.60;;;17.40;43.10;;;;;;5074395;28;20039;-75
2022/01/11 08:44:48;;;;;;;12.63;7.22;;;17.50;42.90;;;;;;5073959;28;20029;-75
2022/01/11 08:47:14;;;;;;;15.23;7.35;;;17.50;42.70;;;;;;5073757;28;20025;-69
2022/01/11 08:49:40;;;;;;;15.82;7.90;;;17.60;42.50;;;;;;5074083;28;20043;-69
2022/01/11 08:52:06;;;;;;;14.55;8.27;;;17.60;42.30;;;;;;5063168;28;20025;-70
2022/01/11 08:54:32;;;;;;;17.08;8.45;;;17.60;42.50;;;;;;5065639;28;20376;-69
2022/01/11 08:57:00;;;;;;;16.73;8.63;;;17.70;42.60;;;;;;5074119;28;20025;-68
2022/01/11 08:59:27;;;;;;;20.45;9.10;;;17.70;42.30;;;;;;5082527;28;20476;-70
2022/01/11 09:01:56;;;;;;;18.42;9.43;;;17.70;42.10;;;;;;5072832;28;20031;-71
2022/01/11 09:04:22;;;;;;;20.40;9.82;;;17.80;41.50;;;;;;5072427;28;20021;-70
2022/01/11 09:06:49;;;;;;;18.00;9.48;;;17.80;41.40;;;;;;5062509;28;20025;-70
2022/01/11 09:09:15;;;;;;;18.45;9.57;;;17.90;41.60;;;;;;5073969;28;20032;-69
2022/01/11 09:11:42;;;;;;;17.30;8.95;;;17.90;41.60;;;;;;5073606;28;20099;-70
2022/01/11 09:14:08;;;;;;;16.63;9.20;;;18.00;41.60;;;;;;5071449;28;20421;-70
2022/01/11 09:16:34;;;;;;;18.20;9.75;;;18.10;41.50;;;;;;5071930;28;20115;-71
2022/01/11 09:19:00;;;;;;;17.20;8.85;;;18.20;41.40;;;;;;5069876;28;20041;-68
2022/01/11 09:21:25;;;;;;;17.02;8.68;;;18.30;41.20;;;;;;5072783;28;20103;-68
2022/01/11 09:23:51;;;;;;;16.65;9.32;;;18.40;41.00;;;;;;5054998;28;20059;-72
2022/01/11 09:26:17;;;;;;;16.80;8.88;;;18.50;40.90;;;;;;5068387;28;20025;-67
2022/01/11 09:28:43;;;;;;;15.80;8.80;;;18.50;40.60;;;;;;5073476;28;20032;-67
2022/01/11 09:31:09;;;;;;;17.63;8.88;;;18.60;40.40;;;;;;5073618;28;20040;-67
2022/01/11 09:33:34;;;;;;;16.90;9.20;;;18.70;40.20;;;;;;5073614;28;20375;-67
2022/01/11 09:36:00;;;;;;;14.70;9.60;;;18.80;40.00;;;;;;5073666;28;20025;-71
2022/01/11 09:38:27;;;;;;;15.52;8.18;;;18.90;39.90;;;;;;5073547;28;20052;-71
2022/01/11 09:40:55;;;;;;;18.75;9.50;;;19.00;39.70;;;;;;5072671;28;20048;-71
2022/01/11 09:43:25;;;;;;;18.73;8.77;;;19.00;39.50;;;;;;5054573;28;20369;-68
2022/01/11 09:45:53;;;;;;;17.70;9.68;;;19.10;39.30;;;;;;5066813;28;20078;-74
2022/01/11 09:48:25;;;;;;;16.67;9.02;;;19.20;39.00;;;;;;5067010;28;20107;-70
2022/01/11 09:50:51;;;;;;;15.50;9.02;;;19.20;38.90;;;;;;5079879;28;20074;-69
2022/01/11 09:53:17;;;;;;;19.27;9.25;;;19.20;39.00;;;;;;5073264;28;20028;-70
2022/01/11 09:55:44;;;;;;;15.38;8.90;;;19.30;38.60;;;;;;5073107;28;20411;-70
2022/01/11 09:58:11;;;;;;;15.90;8.50;;;19.30;38.30;;;;;;5078835;28;20016;-71
2022/01/11 10:00:37;;;;;;;18.00;8.57;;;19.40;38.20;;;;;;5078364;28;20023;-71
2022/01/11 10:03:04;;;;;;;14.90;8.73;;;19.40;38.20;;;;;;5073375;28;20036;-68
2022/01/11 10:05:31;;;;;;;16.58;8.52;;;19.40;38.10;;;;;;5071910;28;20044;-70
2022/01/11 10:07:56;;;;;;;15.77;8.20;;;19.50;40.40;;;;;;5062859;28;20025;-68
2022/01/11 10:10:25;;;;;;;18.58;10.07;;;19.50;41.50;;;;;;5075406;28;20047;-70
2022/01/11 10:12:54;;;;;;;18.52;9.63;;;19.60;39.70;;;;;;5071390;28;20052;-69
2022/01/11 10:15:34;;;;;;;16.60;9.05;;;19.60;38.80;;;;;;5072942;28;20052;-71
2022/01/11 10:18:00;;;;;;;15.98;9.57;;;19.70;38.90;;;;;;5073178;28;20070;-71
2022/01/11 10:20:27;;;;;;;16.58;9.18;;;19.80;38.90;;;;;;5072568;28;20089;-71
2022/01/11 10:23:01;;;;;;;14.70;9.13;;;19.80;39.00;;;;;;5073120;28;20051;-70
2022/01/11 10:25:30;;;;;;;15.98;9.63;;;19.90;38.70;;;;;;5072037;28;20108;-70
2022/01/11 10:28:00;;;;;;;18.75;9.07;;;19.90;38.90;;;;;;5073186;28;20067;-70
2022/01/11 10:30:27;;;;;;;17.85;8.98;;;20.00;39.10;;;;;;5072570;28;20029;-69
2022/01/11 10:32:55;;;;;;;17.02;9.55;;;20.00;39.00;;;;;;5072825;28;20341;-72
2022/01/11 10:35:33;;;;;;;16.25;8.38;;;20.10;39.00;;;;;;5072471;28;20020;-71
2022/01/11 10:38:00;;;;;;;16.10;8.05;;;20.10;38.80;;;;;;5074980;28;20452;-71
2022/01/11 10:40:27;;;;;;;15.93;8.38;;;20.20;38.90;;;;;;5076640;28;20061;-71
2022/01/11 10:42:56;;;;;;;14.55;7.78;;;20.30;38.90;;;;;;5076104;28;20543;-67
2022/01/11 10:45:33;;;;;;;15.15;8.32;;;20.30;38.80;;;;;;5076503;28;20075;-71
2022/01/11 10:48:03;;;;;;;12.85;7.88;;;20.40;38.80;;;;;;5072294;28;20064;-71
2022/01/11 10:50:37;;;;;;;12.05;7.47;;;20.40;38.70;;;;;;5074138;28;20085;-70
2022/01/11 10:53:24;;;;;;;12.02;7.15;;;20.50;39.50;;;;;;5075909;28;20480;-71
2022/01/11 10:55:55;;;;;;;12.23;6.88;;;20.60;38.40;;;;;;5076267;28;20024;-71
2022/01/11 10:58:22;;;;;;;12.35;7.30;;;20.60;38.50;;;;;;5083316;28;20368;-70
2022/01/11 11:00:53;;;;;;;12.18;7.30;;;20.70;38.50;;;;;;5080691;28;20367;-70
2022/01/11 11:03:27;;;;;;;15.48;7.53;;;20.70;38.30;;;;;;5076339;28;20107;-70
2022/01/11 11:05:58;;;;;;;12.13;7.13;;;20.80;38.20;;;;;;5074454;28;20128;-71
2022/01/11 11:08:30;;;;;;;10.70;6.47;;;20.80;38.10;;;;;;5076024;28;20024;-71
2022/01/11 11:10:56;;;;;;;11.23;6.15;;;20.90;38.10;;;;;;5070420;28;20024;-67
2022/01/11 11:13:31;;;;;;;10.43;6.43;;;20.90;38.10;;;;;;5055698;28;20041;-71
2022/01/11 11:16:13;;;;;;;12.05;6.88;;;21.00;38.00;;;;;;5061276;28;20147;-71
2022/01/11 11:18:44;;;;;;;8.88;5.75;;;21.00;37.90;;;;;;5075870;28;20150;-68
2022/01/11 11:21:21;;;;;;;11.00;6.38;;;21.10;37.90;;;;;;5075509;28;20444;-70
2022/01/11 11:23:50;;;;;;;9.05;6.03;;;21.10;37.70;;;;;;5057826;28;20025;-70
2022/01/11 11:26:16;;;;;;;9.88;6.10;;;21.20;37.70;;;;;;5056784;28;20025;-69
2022/01/11 11:28:42;;;;;;;9.80;6.03;;;21.20;37.50;;;;;;5075875;28;20028;-65
2022/01/11 11:31:08;;;;;;;9.45;6.05;;;21.30;37.30;;;;;;5076026;28;20035;-68
2022/01/11 11:33:37;;;;;;;10.45;5.93;;;21.30;37.10;;;;;;5075573;28;20107;-69
2022/01/11 11:36:03;;;;;;;9.85;6.13;;;21.30;38.00;;;;;;5075556;28;20024;-70
2022/01/11 11:38:33;;;;;;;9.25;6.25;;;21.40;37.00;;;;;;5075577;28;20420;-68
2022/01/11 11:41:02;;;;;;;9.98;6.25;;;21.40;36.90;;;;;;5075404;28;20047;-68
2022/01/11 11:43:29;;;;;;;11.27;6.72;;;21.40;36.80;;;;;;5075141;28;20029;-68
2022/01/11 11:45:55;;;;;;;10.45;6.43;;;21.50;36.90;;;;;;5075550;28;20016;-68
2022/01/11 11:48:24;;;;;;;10.43;6.53;;;21.50;37.00;;;;;;5074361;28;20387;-68
2022/01/11 11:50:52;;;;;;;11.05;6.03;;;21.50;37.10;;;;;;5088339;28;20020;-68
2022/01/11 11:53:38;;;;;;;10.13;6.70;;;21.60;37.00;;;;;;5075343;28;20035;-68
2022/01/11 11:56:33;;;;;;;9.13;5.80;;;21.70;36.70;;;;;;5075328;28;20023;-68
2022/01/11 11:59:05;;;;;;;9.07;5.30;;;21.70;36.70;;;;;;5081794;28;20036;-68
2022/01/11 12:01:39;;;;;;;;;;;21.70;36.80;;;;;;5070084;28;20027;-68
2022/01/11 12:04:05;;;;;;;9.63;5.78;;;21.70;36.60;;;;;;5072608;28;20003;-67
2022/01/11 12:06:31;;;;;;;8.88;5.80;;;21.70;36.80;;;;;;5068333;28;20104;-68
2022/01/11 12:09:04;;;;;;;8.98;5.60;;;21.80;36.70;;;;;;5074430;28;20059;-67
2022/01/11 12:11:35;;;;;;;8.57;5.65;;;21.80;36.50;;;;;;5064537;28;20423;-68
2022/01/11 12:14:01;;;;;;;8.10;5.55;;;21.90;36.40;;;;;;5054773;28;20065;-68
2022/01/11 12:16:27;;;;;;;10.32;5.57;;;21.90;36.40;;;;;;5054921;28;20408;-68
2022/01/11 12:18:58;;;;;;;8.55;5.40;;;21.90;36.20;;;;;;5069049;28;20399;-68
2022/01/11 12:21:25;;;;;;;9.82;5.80;;;22.00;36.10;;;;;;5074362;28;20063;-68
2022/01/11 12:23:53;;;;;;;8.50;5.45;;;22.10;37.00;;;;;;5074473;28;20133;-68
2022/01/11 12:26:34;;;;;;;8.68;5.45;;;22.10;35.90;;;;;;5074657;28;20355;-68
2022/01/11 12:29:02;;;;;;;8.75;5.40;;;22.20;35.80;;;;;;5072043;28;20024;-69
2022/01/11 12:31:31;;;;;;;8.80;5.45;;;22.20;35.90;;;;;;5071643;28;20357;-68
2022/01/11 12:33:58;;;;;;;9.32;6.68;;;22.20;35.90;;;;;;5073716;28;20029;-68
2022/01/11 12:37:00;;;;;;;10.63;6.38;;;22.10;36.00;;;;;;5070400;28;20021;-68
2022/01/11 12:39:29;;;;;;;10.70;6.82;;;22.10;36.00;;;;;;5067328;28;20029;-68
2022/01/11 12:41:56;;;;;;;10.75;7.25;;;22.10;36.40;;;;;;5073194;28;20025;-68
2022/01/11 12:46:59;;;;;;;10.52;6.90;;;22.00;36.60;;;;;;5062207;28;20257;-68
2022/01/11 12:49:29;;;;;;;12.10;7.40;;;21.90;36.60;;;;;;5072034;28;20021;-68